sensor_id;sensor_type;location;lat;lon;timestamp;temperature;humidity
33011;DHT22;19370;48.562;9.196;2022-11-09T00:00:51;9.00;99.90
33011;DHT22;19370;48.562;9.196;2022-11-09T00:03:17;9.10;99.90
33011;DHT22;19370;48.562;9.196;2022-11-09T00:05:43;9.10;99.90
33011;DHT22;19370;48.562;9.196;2022-11-09T00:08:18;9.10;99.90
33011;DHT22;19370;48.562;9.196;2022-11-09T00:10:44;9.20;99.90
33011;DHT22;19370;48.562;9.196;2022-11-09T00:13:10;9.20;99.90
33011;DHT22;19370;48.562;9.196;2022-11-09T00:15:35;9.20;99.90
33011;DHT22;19370;48.562;9.196;2022-11-09T00:18:01;9.10;99.90
33011;DHT22;19370;48.562;9.196;2022-11-09T00:20:27;9.10;99.90
33011;DHT22;19370;48.562;9.196;2022-11-09T00:22:53;9.00;99.90
33011;DHT22;19370;48.562;9.196;2022-11-09T00:25:19;8.90;99.90
33011;DHT22;19370;48.562;9.196;2022-11-09T00:27:45;8.90;99.90
33011;DHT22;19370;48.562;9.196;2022-11-09T00:30:11;8.90;99.90
33011;DHT22;19370;48.562;9.196;2022-11-09T00:32:37;8.90;99.90
33011;DHT22;19370;48.562;9.196;2022-11-09T00:35:03;8.80;99.90
33011;DHT22;19370;48.562;9.196;2022-11-09T00:37:29;8.80;99.90
33011;DHT22;19370;48.562;9.196;2022-11-09T00:39:55;8.90;99.90
33011;DHT22;19370;48.562;9.196;2022-11-09T00:42:21;9.00;99.90
33011;DHT22;19370;48.562;9.196;2022-11-09T00:44:47;8.90;99.90
33011;DHT22;19370;48.562;9.196;2022-11-09T00:47:13;8.90;99.90
33011;DHT22;19370;48.562;9.196;2022-11-09T00:49:42;9.00;99.90
33011;DHT22;19370;48.562;9.196;2022-11-09T00:52:08;9.00;99.90
33011;DHT22;19370;48.562;9.196;2022-11-09T00:54:34;9.00;99.90
33011;DHT22;19370;48.562;9.196;2022-11-09T00:56:59;9.00;99.90
33011;DHT22;19370;48.562;9.196;2022-11-09T00:59:25;9.10;99.90
33011;DHT22;19370;48.562;9.196;2022-11-09T01:01:51;9.10;99.90
33011;DHT22;19370;48.562;9.196;2022-11-09T01:04:16;9.20;99.90
33011;DHT22;19370;48.562;9.196;2022-11-09T01:06:42;9.10;99.90
33011;DHT22;19370;48.562;9.196;2022-11-09T01:09:08;9.20;99.90
33011;DHT22;19370;48.562;9.196;2022-11-09T01:11:34;9.10;99.90
33011;DHT22;19370;48.562;9.196;2022-11-09T01:14:00;9.20;99.90
33011;DHT22;19370;48.562;9.196;2022-11-09T01:16:26;9.20;99.90
33011;DHT22;19370;48.562;9.196;2022-11-09T01:18:56;9.20;99.90
33011;DHT22;19370;48.562;9.196;2022-11-09T01:21:23;9.10;99.90
33011;DHT22;19370;48.562;9.196;2022-11-09T01:23:53;9.10;99.90
33011;DHT22;19370;48.562;9.196;2022-11-09T01:26:19;9.20;99.90
33011;DHT22;19370;48.562;9.196;2022-11-09T01:28:45;9.10;99.90
33011;DHT22;19370;48.562;9.196;2022-11-09T01:31:17;9.20;99.90
33011;DHT22;19370;48.562;9.196;2022-11-09T01:33:43;9.10;99.90
33011;DHT22;19370;48.562;9.196;2022-11-09T01:36:11;9.10;99.90
33011;DHT22;19370;48.562;9.196;2022-11-09T01:38:39;9.20;99.90
33011;DHT22;19370;48.562;9.196;2022-11-09T01:41:18;9.10;99.90
33011;DHT22;19370;48.562;9.196;2022-11-09T01:46:50;9.10;99.90
33011;DHT22;19370;48.562;9.196;2022-11-09T01:52:24;9.20;99.90
33011;DHT22;19370;48.562;9.196;2022-11-09T01:55:03;9.20;99.90
33011;DHT22;19370;48.562;9.196;2022-11-09T01:57:37;9.20;99.90
33011;DHT22;19370;48.562;9.196;2022-11-09T02:00:10;9.20;99.90
33011;DHT22;19370;48.562;9.196;2022-11-09T02:02:39;9.20;99.90
33011;DHT22;19370;48.562;9.196;2022-11-09T02:05:09;9.20;99.90
33011;DHT22;19370;48.562;9.196;2022-11-09T02:07:37;9.30;99.90
33011;DHT22;19370;48.562;9.196;2022-11-09T02:10:07;9.30;99.90
33011;DHT22;19370;48.562;9.196;2022-11-09T02:12:35;9.40;99.90
33011;DHT22;19370;48.562;9.196;2022-11-09T02:15:02;9.50;99.90
33011;DHT22;19370;48.562;9.196;2022-11-09T02:17:29;9.60;99.90
33011;DHT22;19370;48.562;9.196;2022-11-09T02:19:59;9.70;99.90
33011;DHT22;19370;48.562;9.196;2022-11-09T02:22:25;9.70;99.90
33011;DHT22;19370;48.562;9.196;2022-11-09T02:24:51;9.80;99.90
33011;DHT22;19370;48.562;9.196;2022-11-09T02:27:18;9.80;99.90
33011;DHT22;19370;48.562;9.196;2022-11-09T02:29:46;9.70;99.90
33011;DHT22;19370;48.562;9.196;2022-11-09T02:32:21;9.70;99.90
33011;DHT22;19370;48.562;9.196;2022-11-09T02:34:48;9.80;99.90
33011;DHT22;19370;48.562;9.196;2022-11-09T02:37:34;9.90;99.90
33011;DHT22;19370;48.562;9.196;2022-11-09T02:40:03;9.90;99.90
33011;DHT22;19370;48.562;9.196;2022-11-09T02:42:33;10.00;99.90
33011;DHT22;19370;48.562;9.196;2022-11-09T02:44:59;10.00;99.90
33011;DHT22;19370;48.562;9.196;2022-11-09T02:47:25;10.20;99.90
33011;DHT22;19370;48.562;9.196;2022-11-09T02:49:51;10.20;99.90
33011;DHT22;19370;48.562;9.196;2022-11-09T02:52:17;10.30;99.90
33011;DHT22;19370;48.562;9.196;2022-11-09T02:54:43;10.30;99.90
33011;DHT22;19370;48.562;9.196;2022-11-09T02:57:09;10.40;99.90
33011;DHT22;19370;48.562;9.196;2022-11-09T02:59:35;10.40;99.90
33011;DHT22;19370;48.562;9.196;2022-11-09T03:02:01;10.40;99.90
33011;DHT22;19370;48.562;9.196;2022-11-09T03:04:26;10.30;99.90
33011;DHT22;19370;48.562;9.196;2022-11-09T03:06:52;10.30;99.90
33011;DHT22;19370;48.562;9.196;2022-11-09T03:09:18;10.40;99.90
33011;DHT22;19370;48.562;9.196;2022-11-09T03:11:44;10.40;99.90
33011;DHT22;19370;48.562;9.196;2022-11-09T03:14:10;10.40;99.90
33011;DHT22;19370;48.562;9.196;2022-11-09T03:16:37;10.20;99.90
33011;DHT22;19370;48.562;9.196;2022-11-09T03:19:04;10.00;99.90
33011;DHT22;19370;48.562;9.196;2022-11-09T03:21:30;9.50;99.90
33011;DHT22;19370;48.562;9.196;2022-11-09T03:23:55;9.50;99.90
33011;DHT22;19370;48.562;9.196;2022-11-09T03:26:21;9.50;99.90
33011;DHT22;19370;48.562;9.196;2022-11-09T03:28:47;9.50;99.90
33011;DHT22;19370;48.562;9.196;2022-11-09T03:31:13;9.50;99.90
33011;DHT22;19370;48.562;9.196;2022-11-09T03:33:39;9.40;99.90
33011;DHT22;19370;48.562;9.196;2022-11-09T03:36:05;9.40;99.90
33011;DHT22;19370;48.562;9.196;2022-11-09T03:38:31;9.50;99.90
33011;DHT22;19370;48.562;9.196;2022-11-09T03:41:02;9.50;99.90
33011;DHT22;19370;48.562;9.196;2022-11-09T03:43:29;9.40;99.90
33011;DHT22;19370;48.562;9.196;2022-11-09T03:45:55;9.40;99.90
33011;DHT22;19370;48.562;9.196;2022-11-09T03:48:21;9.40;99.90
33011;DHT22;19370;48.562;9.196;2022-11-09T03:50:46;9.30;99.90
33011;DHT22;19370;48.562;9.196;2022-11-09T03:53:12;9.20;99.90
33011;DHT22;19370;48.562;9.196;2022-11-09T03:55:38;9.30;99.90
33011;DHT22;19370;48.562;9.196;2022-11-09T03:58:05;9.20;99.90
33011;DHT22;19370;48.562;9.196;2022-11-09T04:00:31;9.20;99.90
33011;DHT22;19370;48.562;9.196;2022-11-09T04:02:57;9.10;99.90
33011;DHT22;19370;48.562;9.196;2022-11-09T04:05:23;9.10;99.90
33011;DHT22;19370;48.562;9.196;2022-11-09T04:07:54;9.00;99.90
33011;DHT22;19370;48.562;9.196;2022-11-09T04:10:21;9.00;99.90
33011;DHT22;19370;48.562;9.196;2022-11-09T04:12:47;8.80;99.90
33011;DHT22;19370;48.562;9.196;2022-11-09T04:15:13;8.90;99.90
33011;DHT22;19370;48.562;9.196;2022-11-09T04:17:39;8.90;99.90
33011;DHT22;19370;48.562;9.196;2022-11-09T04:20:07;8.90;99.90
33011;DHT22;19370;48.562;9.196;2022-11-09T04:22:33;8.90;99.90
33011;DHT22;19370;48.562;9.196;2022-11-09T04:24:59;8.90;99.90
33011;DHT22;19370;48.562;9.196;2022-11-09T04:27:25;8.90;99.90
33011;DHT22;19370;48.562;9.196;2022-11-09T04:29:51;8.90;99.90
33011;DHT22;19370;48.562;9.196;2022-11-09T04:32:17;8.90;99.90
33011;DHT22;19370;48.562;9.196;2022-11-09T04:34:42;8.90;99.90
33011;DHT22;19370;48.562;9.196;2022-11-09T04:37:09;8.90;99.90
33011;DHT22;19370;48.562;9.196;2022-11-09T04:39:36;8.90;99.90
33011;DHT22;19370;48.562;9.196;2022-11-09T04:42:01;8.90;99.90
33011;DHT22;19370;48.562;9.196;2022-11-09T04:44:27;9.00;99.90
33011;DHT22;19370;48.562;9.196;2022-11-09T04:46:54;8.90;99.90
33011;DHT22;19370;48.562;9.196;2022-11-09T04:49:20;8.80;99.90
33011;DHT22;19370;48.562;9.196;2022-11-09T04:51:46;8.90;99.90
33011;DHT22;19370;48.562;9.196;2022-11-09T04:54:12;9.00;99.90
33011;DHT22;19370;48.562;9.196;2022-11-09T04:56:37;8.90;99.90
33011;DHT22;19370;48.562;9.196;2022-11-09T04:59:03;8.90;99.90
33011;DHT22;19370;48.562;9.196;2022-11-09T05:01:28;8.80;99.90
33011;DHT22;19370;48.562;9.196;2022-11-09T05:03:55;8.90;99.90
33011;DHT22;19370;48.562;9.196;2022-11-09T05:06:21;8.90;99.90
33011;DHT22;19370;48.562;9.196;2022-11-09T05:09:06;8.90;99.90
33011;DHT22;19370;48.562;9.196;2022-11-09T05:11:33;8.80;99.90
33011;DHT22;19370;48.562;9.196;2022-11-09T05:13:59;8.80;99.90
33011;DHT22;19370;48.562;9.196;2022-11-09T05:16:27;8.90;99.90
33011;DHT22;19370;48.562;9.196;2022-11-09T05:18:52;8.90;99.90
33011;DHT22;19370;48.562;9.196;2022-11-09T05:21:19;8.90;99.90
33011;DHT22;19370;48.562;9.196;2022-11-09T05:23:45;8.90;99.90
33011;DHT22;19370;48.562;9.196;2022-11-09T05:28:54;8.90;99.90
33011;DHT22;19370;48.562;9.196;2022-11-09T05:31:22;8.90;99.90
33011;DHT22;19370;48.562;9.196;2022-11-09T05:33:49;9.00;99.90
33011;DHT22;19370;48.562;9.196;2022-11-09T05:36:16;9.00;99.90
33011;DHT22;19370;48.562;9.196;2022-11-09T05:38:42;9.10;99.90
33011;DHT22;19370;48.562;9.196;2022-11-09T05:41:08;9.10;99.90
33011;DHT22;19370;48.562;9.196;2022-11-09T05:43:34;9.10;99.90
33011;DHT22;19370;48.562;9.196;2022-11-09T05:46:00;9.10;99.90
33011;DHT22;19370;48.562;9.196;2022-11-09T05:48:25;9.10;99.90
33011;DHT22;19370;48.562;9.196;2022-11-09T05:50:51;9.10;99.90
33011;DHT22;19370;48.562;9.196;2022-11-09T05:53:17;9.10;99.90
33011;DHT22;19370;48.562;9.196;2022-11-09T05:55:43;9.20;99.90
33011;DHT22;19370;48.562;9.196;2022-11-09T05:58:09;9.20;99.90
33011;DHT22;19370;48.562;9.196;2022-11-09T06:00:35;9.20;99.90
33011;DHT22;19370;48.562;9.196;2022-11-09T06:03:09;9.30;99.90
33011;DHT22;19370;48.562;9.196;2022-11-09T06:05:36;9.30;99.90
33011;DHT22;19370;48.562;9.196;2022-11-09T06:08:10;9.40;99.90
33011;DHT22;19370;48.562;9.196;2022-11-09T06:10:38;9.40;99.90
33011;DHT22;19370;48.562;9.196;2022-11-09T06:13:04;9.40;99.90
33011;DHT22;19370;48.562;9.196;2022-11-09T06:15:30;9.40;99.90
33011;DHT22;19370;48.562;9.196;2022-11-09T06:17:57;9.40;99.90
33011;DHT22;19370;48.562;9.196;2022-11-09T06:20:24;9.40;99.90
33011;DHT22;19370;48.562;9.196;2022-11-09T06:22:59;9.50;99.90
33011;DHT22;19370;48.562;9.196;2022-11-09T06:25:25;9.50;99.90
33011;DHT22;19370;48.562;9.196;2022-11-09T06:27:55;9.50;99.90
33011;DHT22;19370;48.562;9.196;2022-11-09T06:30:21;9.50;99.90
33011;DHT22;19370;48.562;9.196;2022-11-09T06:32:47;9.50;99.90
33011;DHT22;19370;48.562;9.196;2022-11-09T06:35:13;9.60;99.90
33011;DHT22;19370;48.562;9.196;2022-11-09T06:37:39;9.60;99.90
33011;DHT22;19370;48.562;9.196;2022-11-09T06:40:05;9.60;99.90
33011;DHT22;19370;48.562;9.196;2022-11-09T06:42:31;9.60;99.90
33011;DHT22;19370;48.562;9.196;2022-11-09T06:44:57;9.70;99.90
33011;DHT22;19370;48.562;9.196;2022-11-09T06:47:22;9.70;99.90
33011;DHT22;19370;48.562;9.196;2022-11-09T06:49:48;9.70;99.90
33011;DHT22;19370;48.562;9.196;2022-11-09T06:52:14;9.70;99.90
33011;DHT22;19370;48.562;9.196;2022-11-09T06:54:40;9.80;99.90
33011;DHT22;19370;48.562;9.196;2022-11-09T06:57:06;9.80;99.90
33011;DHT22;19370;48.562;9.196;2022-11-09T06:59:31;9.80;99.90
33011;DHT22;19370;48.562;9.196;2022-11-09T07:01:57;9.90;99.90
33011;DHT22;19370;48.562;9.196;2022-11-09T07:04:23;9.90;99.90
33011;DHT22;19370;48.562;9.196;2022-11-09T07:06:48;9.90;99.90
33011;DHT22;19370;48.562;9.196;2022-11-09T07:09:14;9.90;99.90
33011;DHT22;19370;48.562;9.196;2022-11-09T07:11:40;9.90;99.90
33011;DHT22;19370;48.562;9.196;2022-11-09T07:14:05;9.90;99.90
33011;DHT22;19370;48.562;9.196;2022-11-09T07:16:31;9.90;99.90
33011;DHT22;19370;48.562;9.196;2022-11-09T07:19:00;9.90;99.90
33011;DHT22;19370;48.562;9.196;2022-11-09T07:21:26;9.90;99.90
33011;DHT22;19370;48.562;9.196;2022-11-09T07:23:52;9.90;99.90
33011;DHT22;19370;48.562;9.196;2022-11-09T07:26:18;9.90;99.90
33011;DHT22;19370;48.562;9.196;2022-11-09T07:28:43;10.00;99.90
33011;DHT22;19370;48.562;9.196;2022-11-09T07:31:09;10.00;99.90
33011;DHT22;19370;48.562;9.196;2022-11-09T07:33:35;10.00;99.90
33011;DHT22;19370;48.562;9.196;2022-11-09T07:36:03;10.10;99.90
33011;DHT22;19370;48.562;9.196;2022-11-09T07:38:29;10.00;99.90
33011;DHT22;19370;48.562;9.196;2022-11-09T07:40:59;10.10;99.90
33011;DHT22;19370;48.562;9.196;2022-11-09T07:43:25;10.00;99.90
33011;DHT22;19370;48.562;9.196;2022-11-09T07:45:51;10.00;99.90
33011;DHT22;19370;48.562;9.196;2022-11-09T07:48:17;9.90;99.90
33011;DHT22;19370;48.562;9.196;2022-11-09T07:50:43;9.80;99.90
33011;DHT22;19370;48.562;9.196;2022-11-09T07:53:11;9.80;99.90
33011;DHT22;19370;48.562;9.196;2022-11-09T07:55:37;9.80;99.90
33011;DHT22;19370;48.562;9.196;2022-11-09T07:58:09;9.80;99.90
33011;DHT22;19370;48.562;9.196;2022-11-09T08:00:37;9.80;99.90
33011;DHT22;19370;48.562;9.196;2022-11-09T08:03:03;9.80;99.90
33011;DHT22;19370;48.562;9.196;2022-11-09T08:05:29;9.90;99.90
33011;DHT22;19370;48.562;9.196;2022-11-09T08:07:59;9.90;99.90
33011;DHT22;19370;48.562;9.196;2022-11-09T08:10:26;9.90;99.90
33011;DHT22;19370;48.562;9.196;2022-11-09T08:13:02;9.90;99.90
33011;DHT22;19370;48.562;9.196;2022-11-09T08:15:29;10.00;99.90
33011;DHT22;19370;48.562;9.196;2022-11-09T08:17:59;10.00;99.90
33011;DHT22;19370;48.562;9.196;2022-11-09T08:20:25;9.90;99.90
33011;DHT22;19370;48.562;9.196;2022-11-09T08:22:51;9.80;99.90
33011;DHT22;19370;48.562;9.196;2022-11-09T08:25:17;9.80;99.90
33011;DHT22;19370;48.562;9.196;2022-11-09T08:27:42;9.70;99.90
33011;DHT22;19370;48.562;9.196;2022-11-09T08:30:17;9.70;99.90
33011;DHT22;19370;48.562;9.196;2022-11-09T08:32:43;9.70;99.90
33011;DHT22;19370;48.562;9.196;2022-11-09T08:35:11;9.70;99.90
33011;DHT22;19370;48.562;9.196;2022-11-09T08:37:38;9.70;99.90
33011;DHT22;19370;48.562;9.196;2022-11-09T08:40:05;9.60;99.90
33011;DHT22;19370;48.562;9.196;2022-11-09T08:42:31;9.60;99.90
33011;DHT22;19370;48.562;9.196;2022-11-09T08:44:57;9.70;99.90
33011;DHT22;19370;48.562;9.196;2022-11-09T08:47:23;9.60;99.90
33011;DHT22;19370;48.562;9.196;2022-11-09T08:49:49;9.60;99.90
33011;DHT22;19370;48.562;9.196;2022-11-09T08:52:15;9.50;99.90
33011;DHT22;19370;48.562;9.196;2022-11-09T08:54:44;9.60;99.90
33011;DHT22;19370;48.562;9.196;2022-11-09T08:57:10;9.60;99.90
33011;DHT22;19370;48.562;9.196;2022-11-09T08:59:36;9.60;99.90
33011;DHT22;19370;48.562;9.196;2022-11-09T09:02:03;9.50;99.90
33011;DHT22;19370;48.562;9.196;2022-11-09T09:04:29;9.50;99.90
33011;DHT22;19370;48.562;9.196;2022-11-09T09:06:54;9.40;99.90
33011;DHT22;19370;48.562;9.196;2022-11-09T09:09:20;9.40;99.90
33011;DHT22;19370;48.562;9.196;2022-11-09T09:11:46;9.50;99.90
33011;DHT22;19370;48.562;9.196;2022-11-09T09:14:12;9.60;99.90
33011;DHT22;19370;48.562;9.196;2022-11-09T09:16:38;9.70;99.90
33011;DHT22;19370;48.562;9.196;2022-11-09T09:19:03;9.70;99.90
33011;DHT22;19370;48.562;9.196;2022-11-09T09:21:29;9.70;99.90
33011;DHT22;19370;48.562;9.196;2022-11-09T09:23:55;9.70;99.90
33011;DHT22;19370;48.562;9.196;2022-11-09T09:26:20;9.70;99.90
33011;DHT22;19370;48.562;9.196;2022-11-09T09:28:46;9.80;99.90
33011;DHT22;19370;48.562;9.196;2022-11-09T09:31:12;9.80;99.90
33011;DHT22;19370;48.562;9.196;2022-11-09T09:33:39;9.90;99.90
33011;DHT22;19370;48.562;9.196;2022-11-09T09:36:05;10.00;99.90
33011;DHT22;19370;48.562;9.196;2022-11-09T09:38:31;10.10;99.90
33011;DHT22;19370;48.562;9.196;2022-11-09T09:40:57;10.30;99.90
33011;DHT22;19370;48.562;9.196;2022-11-09T09:45:55;10.40;99.90
33011;DHT22;19370;48.562;9.196;2022-11-09T09:48:39;10.40;99.90
33011;DHT22;19370;48.562;9.196;2022-11-09T09:51:17;10.40;99.90
33011;DHT22;19370;48.562;9.196;2022-11-09T09:53:48;10.60;99.90
33011;DHT22;19370;48.562;9.196;2022-11-09T09:56:22;11.00;99.90
33011;DHT22;19370;48.562;9.196;2022-11-09T09:58:56;11.30;99.90
33011;DHT22;19370;48.562;9.196;2022-11-09T10:01:31;11.60;99.90
33011;DHT22;19370;48.562;9.196;2022-11-09T10:03:59;11.90;99.90
33011;DHT22;19370;48.562;9.196;2022-11-09T10:06:34;12.20;99.90
33011;DHT22;19370;48.562;9.196;2022-11-09T10:11:57;12.70;99.90
33011;DHT22;19370;48.562;9.196;2022-11-09T10:25:37;13.40;99.90
33011;DHT22;19370;48.562;9.196;2022-11-09T10:28:10;13.40;99.90
33011;DHT22;19370;48.562;9.196;2022-11-09T10:30:38;13.40;99.90
33011;DHT22;19370;48.562;9.196;2022-11-09T10:35:37;13.50;99.90
33011;DHT22;19370;48.562;9.196;2022-11-09T10:38:06;13.50;99.90
33011;DHT22;19370;48.562;9.196;2022-11-09T10:40:47;13.60;99.90
33011;DHT22;19370;48.562;9.196;2022-11-09T10:43:14;13.70;99.90
33011;DHT22;19370;48.562;9.196;2022-11-09T10:45:42;13.80;99.90
33011;DHT22;19370;48.562;9.196;2022-11-09T10:48:10;14.10;99.90
33011;DHT22;19370;48.562;9.196;2022-11-09T10:50:39;14.30;99.90
33011;DHT22;19370;48.562;9.196;2022-11-09T10:55:38;14.00;99.90
33011;DHT22;19370;48.562;9.196;2022-11-09T11:03:35;13.50;99.90
33011;DHT22;19370;48.562;9.196;2022-11-09T11:08:32;13.30;99.90
33011;DHT22;19370;48.562;9.196;2022-11-09T11:11:18;13.10;99.90
33011;DHT22;19370;48.562;9.196;2022-11-09T11:13:45;13.20;99.90
33011;DHT22;19370;48.562;9.196;2022-11-09T11:18:44;13.60;99.90
33011;DHT22;19370;48.562;9.196;2022-11-09T11:21:18;13.90;99.90
33011;DHT22;19370;48.562;9.196;2022-11-09T11:29:33;13.90;99.90
33011;DHT22;19370;48.562;9.196;2022-11-09T11:32:02;13.60;99.90
33011;DHT22;19370;48.562;9.196;2022-11-09T11:34:36;13.40;99.90
33011;DHT22;19370;48.562;9.196;2022-11-09T11:37:28;13.30;99.90
33011;DHT22;19370;48.562;9.196;2022-11-09T11:40:04;13.10;99.90
33011;DHT22;19370;48.562;9.196;2022-11-09T11:45:40;12.80;99.90
33011;DHT22;19370;48.562;9.196;2022-11-09T11:48:42;12.70;99.90
33011;DHT22;19370;48.562;9.196;2022-11-09T12:00:14;12.70;99.90
33011;DHT22;19370;48.562;9.196;2022-11-09T12:25:36;12.70;99.90
33011;DHT22;19370;48.562;9.196;2022-11-09T12:34:02;12.80;99.90
33011;DHT22;19370;48.562;9.196;2022-11-09T12:36:37;12.90;99.90
33011;DHT22;19370;48.562;9.196;2022-11-09T12:41:52;13.20;99.90
33011;DHT22;19370;48.562;9.196;2022-11-09T12:44:30;13.30;99.90
33011;DHT22;19370;48.562;9.196;2022-11-09T12:47:07;13.20;99.90
33011;DHT22;19370;48.562;9.196;2022-11-09T12:49:39;13.10;99.90
33011;DHT22;19370;48.562;9.196;2022-11-09T12:52:07;13.10;99.90
33011;DHT22;19370;48.562;9.196;2022-11-09T12:54:40;13.00;99.90
33011;DHT22;19370;48.562;9.196;2022-11-09T12:57:10;13.00;99.90
33011;DHT22;19370;48.562;9.196;2022-11-09T13:05:01;12.90;99.90
33011;DHT22;19370;48.562;9.196;2022-11-09T13:07:48;12.80;99.90
33011;DHT22;19370;48.562;9.196;2022-11-09T13:16:02;12.70;99.90
33011;DHT22;19370;48.562;9.196;2022-11-09T13:23:46;12.70;99.90
33011;DHT22;19370;48.562;9.196;2022-11-09T13:29:25;12.60;99.90
33011;DHT22;19370;48.562;9.196;2022-11-09T13:34:56;12.60;99.90
33011;DHT22;19370;48.562;9.196;2022-11-09T13:37:43;12.60;99.90
33011;DHT22;19370;48.562;9.196;2022-11-09T13:43:01;12.50;99.90
33011;DHT22;19370;48.562;9.196;2022-11-09T13:45:37;12.50;99.90
33011;DHT22;19370;48.562;9.196;2022-11-09T13:48:19;12.50;99.90
33011;DHT22;19370;48.562;9.196;2022-11-09T13:50:50;12.50;99.90
33011;DHT22;19370;48.562;9.196;2022-11-09T13:56:26;12.40;99.90
33011;DHT22;19370;48.562;9.196;2022-11-09T14:01:57;12.20;99.90
33011;DHT22;19370;48.562;9.196;2022-11-09T14:04:36;12.20;99.90
33011;DHT22;19370;48.562;9.196;2022-11-09T14:07:28;12.20;99.90
33011;DHT22;19370;48.562;9.196;2022-11-09T14:15:56;12.10;99.90
33011;DHT22;19370;48.562;9.196;2022-11-09T14:23:52;12.00;99.90
33011;DHT22;19370;48.562;9.196;2022-11-09T14:26:21;12.10;99.90
33011;DHT22;19370;48.562;9.196;2022-11-09T14:28:47;12.10;99.90
33011;DHT22;19370;48.562;9.196;2022-11-09T14:34:04;12.10;99.90
33011;DHT22;19370;48.562;9.196;2022-11-09T14:36:31;12.00;99.90
33011;DHT22;19370;48.562;9.196;2022-11-09T14:39:00;11.90;99.90
33011;DHT22;19370;48.562;9.196;2022-11-09T14:41:27;11.90;99.90
33011;DHT22;19370;48.562;9.196;2022-11-09T14:43:55;11.90;99.90
33011;DHT22;19370;48.562;9.196;2022-11-09T14:46:25;11.80;99.90
33011;DHT22;19370;48.562;9.196;2022-11-09T14:48:57;11.80;99.90
33011;DHT22;19370;48.562;9.196;2022-11-09T14:51:33;11.70;99.90
33011;DHT22;19370;48.562;9.196;2022-11-09T14:54:00;11.80;99.90
33011;DHT22;19370;48.562;9.196;2022-11-09T14:56:27;11.70;99.90
33011;DHT22;19370;48.562;9.196;2022-11-09T14:58:57;11.70;99.90
33011;DHT22;19370;48.562;9.196;2022-11-09T15:01:25;11.70;99.90
33011;DHT22;19370;48.562;9.196;2022-11-09T15:06:31;11.60;99.90
33011;DHT22;19370;48.562;9.196;2022-11-09T15:09:01;11.50;99.90
33011;DHT22;19370;48.562;9.196;2022-11-09T15:11:33;11.50;99.90
33011;DHT22;19370;48.562;9.196;2022-11-09T15:14:14;11.50;99.90
33011;DHT22;19370;48.562;9.196;2022-11-09T15:16:47;11.50;99.90
33011;DHT22;19370;48.562;9.196;2022-11-09T15:22:48;11.40;99.90
33011;DHT22;19370;48.562;9.196;2022-11-09T15:25:28;11.40;99.90
33011;DHT22;19370;48.562;9.196;2022-11-09T15:36:05;11.30;99.90
33011;DHT22;19370;48.562;9.196;2022-11-09T15:38:44;11.30;99.90
33011;DHT22;19370;48.562;9.196;2022-11-09T15:41:13;11.20;99.90
33011;DHT22;19370;48.562;9.196;2022-11-09T15:43:39;11.20;99.90
33011;DHT22;19370;48.562;9.196;2022-11-09T15:46:06;11.20;99.90
33011;DHT22;19370;48.562;9.196;2022-11-09T15:48:32;11.20;99.90
33011;DHT22;19370;48.562;9.196;2022-11-09T15:50:58;11.20;99.90
33011;DHT22;19370;48.562;9.196;2022-11-09T15:53:24;11.20;99.90
33011;DHT22;19370;48.562;9.196;2022-11-09T15:55:50;11.10;99.90
33011;DHT22;19370;48.562;9.196;2022-11-09T15:58:17;11.10;99.90
33011;DHT22;19370;48.562;9.196;2022-11-09T16:00:43;11.10;99.90
33011;DHT22;19370;48.562;9.196;2022-11-09T16:03:10;11.00;99.90
33011;DHT22;19370;48.562;9.196;2022-11-09T16:05:37;11.00;99.90
33011;DHT22;19370;48.562;9.196;2022-11-09T16:08:03;11.00;99.90
33011;DHT22;19370;48.562;9.196;2022-11-09T16:10:34;10.90;99.90
33011;DHT22;19370;48.562;9.196;2022-11-09T16:13:03;10.90;99.90
33011;DHT22;19370;48.562;9.196;2022-11-09T16:15:34;10.90;99.90
33011;DHT22;19370;48.562;9.196;2022-11-09T16:18:00;10.90;99.90
33011;DHT22;19370;48.562;9.196;2022-11-09T16:20:26;11.00;99.90
33011;DHT22;19370;48.562;9.196;2022-11-09T16:22:52;10.90;99.90
33011;DHT22;19370;48.562;9.196;2022-11-09T16:25:18;10.90;99.90
33011;DHT22;19370;48.562;9.196;2022-11-09T16:27:45;10.90;99.90
33011;DHT22;19370;48.562;9.196;2022-11-09T16:30:11;10.90;99.90
33011;DHT22;19370;48.562;9.196;2022-11-09T16:32:37;10.90;99.90
33011;DHT22;19370;48.562;9.196;2022-11-09T16:35:06;10.80;99.90
33011;DHT22;19370;48.562;9.196;2022-11-09T16:37:35;10.90;99.90
33011;DHT22;19370;48.562;9.196;2022-11-09T16:40:09;10.90;99.90
33011;DHT22;19370;48.562;9.196;2022-11-09T16:42:36;10.90;99.90
33011;DHT22;19370;48.562;9.196;2022-11-09T16:45:07;10.80;99.90
33011;DHT22;19370;48.562;9.196;2022-11-09T16:47:37;10.80;99.90
33011;DHT22;19370;48.562;9.196;2022-11-09T16:50:04;10.80;99.90
33011;DHT22;19370;48.562;9.196;2022-11-09T16:52:30;10.70;99.90
33011;DHT22;19370;48.562;9.196;2022-11-09T16:54:55;10.70;99.90
33011;DHT22;19370;48.562;9.196;2022-11-09T16:57:21;10.70;99.90
33011;DHT22;19370;48.562;9.196;2022-11-09T16:59:47;10.60;99.90
33011;DHT22;19370;48.562;9.196;2022-11-09T17:02:13;10.60;99.90
33011;DHT22;19370;48.562;9.196;2022-11-09T17:04:38;10.60;99.90
33011;DHT22;19370;48.562;9.196;2022-11-09T17:07:04;10.60;99.90
33011;DHT22;19370;48.562;9.196;2022-11-09T17:09:34;10.60;99.90
33011;DHT22;19370;48.562;9.196;2022-11-09T17:11:59;10.50;99.90
33011;DHT22;19370;48.562;9.196;2022-11-09T17:14:29;10.50;99.90
33011;DHT22;19370;48.562;9.196;2022-11-09T17:16:55;10.50;99.90
33011;DHT22;19370;48.562;9.196;2022-11-09T17:19:21;10.50;99.90
33011;DHT22;19370;48.562;9.196;2022-11-09T17:21:47;10.50;99.90
33011;DHT22;19370;48.562;9.196;2022-11-09T17:24:13;10.50;99.90
33011;DHT22;19370;48.562;9.196;2022-11-09T17:26:40;10.50;99.90
33011;DHT22;19370;48.562;9.196;2022-11-09T17:29:06;10.50;99.90
33011;DHT22;19370;48.562;9.196;2022-11-09T17:31:34;10.50;99.90
33011;DHT22;19370;48.562;9.196;2022-11-09T17:34:03;10.50;99.90
33011;DHT22;19370;48.562;9.196;2022-11-09T17:36:31;10.40;99.90
33011;DHT22;19370;48.562;9.196;2022-11-09T17:38:58;10.40;99.90
33011;DHT22;19370;48.562;9.196;2022-11-09T17:41:26;10.40;99.90
33011;DHT22;19370;48.562;9.196;2022-11-09T17:43:52;10.40;99.90
33011;DHT22;19370;48.562;9.196;2022-11-09T17:46:21;10.40;99.90
33011;DHT22;19370;48.562;9.196;2022-11-09T17:48:48;10.40;99.90
33011;DHT22;19370;48.562;9.196;2022-11-09T17:51:16;10.40;99.90
33011;DHT22;19370;48.562;9.196;2022-11-09T17:53:42;10.40;99.90
33011;DHT22;19370;48.562;9.196;2022-11-09T17:56:09;10.40;99.90
33011;DHT22;19370;48.562;9.196;2022-11-09T17:58:39;10.40;99.90
33011;DHT22;19370;48.562;9.196;2022-11-09T18:01:07;10.40;99.90
33011;DHT22;19370;48.562;9.196;2022-11-09T18:03:35;10.40;99.90
33011;DHT22;19370;48.562;9.196;2022-11-09T18:06:01;10.40;99.90
33011;DHT22;19370;48.562;9.196;2022-11-09T18:08:28;10.40;99.90
33011;DHT22;19370;48.562;9.196;2022-11-09T18:10:56;10.40;99.90
33011;DHT22;19370;48.562;9.196;2022-11-09T18:13:24;10.40;99.90
33011;DHT22;19370;48.562;9.196;2022-11-09T18:15:50;10.40;99.90